sensor_id;sensor_type;location;lat;lon;timestamp;pressure;altitude;pressure_sealevel;temperature;humidity
41222;BME280;26952;42.884;23.918;2023-03-01T00:01:55;96554.97;;;4.16;100.00
41222;BME280;26952;42.884;23.918;2023-03-01T00:04:21;96562.66;;;4.07;100.00
41222;BME280;26952;42.884;23.918;2023-03-01T00:06:46;96558.88;;;4.11;100.00
41222;BME280;26952;42.884;23.918;2023-03-01T00:09:13;96547.09;;;4.16;100.00
41222;BME280;26952;42.884;23.918;2023-03-01T00:11:39;96544.94;;;4.21;100.00
41222;BME280;26952;42.884;23.918;2023-03-01T00:14:04;96545.78;;;4.22;100.00
41222;BME280;26952;42.884;23.918;2023-03-01T00:16:34;96528.66;;;4.18;100.00
41222;BME280;26952;42.884;23.918;2023-03-01T00:19:00;96544.94;;;4.21;100.00
41222;BME280;26952;42.884;23.918;2023-03-01T00:21:26;96526.59;;;4.10;100.00
41222;BME280;26952;42.884;23.918;2023-03-01T00:23:53;96493.47;;;3.87;100.00
41222;BME280;26952;42.884;23.918;2023-03-01T00:26:20;96509.22;;;3.98;100.00
41222;BME280;26952;42.884;23.918;2023-03-01T00:28:46;96517.06;;;4.09;100.00
41222;BME280;26952;42.884;23.918;2023-03-01T00:31:17;96518.25;;;4.05;100.00
41222;BME280;26952;42.884;23.918;2023-03-01T00:33:44;96515.88;;;4.02;100.00
41222;BME280;26952;42.884;23.918;2023-03-01T00:36:11;96505.63;;;3.99;100.00
41222;BME280;26952;42.884;23.918;2023-03-01T00:38:38;96520.41;;;4.11;100.00
41222;BME280;26952;42.884;23.918;2023-03-01T00:41:09;96509.47;;;4.06;100.00
41222;BME280;26952;42.884;23.918;2023-03-01T00:43:35;96514.34;;;4.22;100.00
41222;BME280;26952;42.884;23.918;2023-03-01T00:46:08;96518.06;;;4.31;100.00
41222;BME280;26952;42.884;23.918;2023-03-01T00:48:35;96500.75;;;4.17;100.00
41222;BME280;26952;42.884;23.918;2023-03-01T00:51:24;96518.75;;;4.21;100.00
41222;BME280;26952;42.884;23.918;2023-03-01T00:53:56;96512.56;;;4.22;100.00
41222;BME280;26952;42.884;23.918;2023-03-01T00:56:22;96494.47;;;4.19;100.00
41222;BME280;26952;42.884;23.918;2023-03-01T00:58:48;96501.84;;;4.25;100.00
41222;BME280;26952;42.884;23.918;2023-03-01T01:01:18;96505.31;;;4.26;100.00
41222;BME280;26952;42.884;23.918;2023-03-01T01:04:00;96502.09;;;4.34;100.00
41222;BME280;26952;42.884;23.918;2023-03-01T01:06:34;96481.38;;;4.31;100.00
41222;BME280;26952;42.884;23.918;2023-03-01T01:09:00;96489.22;;;4.42;100.00
41222;BME280;26952;42.884;23.918;2023-03-01T01:11:28;96473.75;;;4.39;100.00
41222;BME280;26952;42.884;23.918;2023-03-01T01:13:54;96470.41;;;4.37;100.00
41222;BME280;26952;42.884;23.918;2023-03-01T01:16:21;96482.31;;;4.18;100.00
41222;BME280;26952;42.884;23.918;2023-03-01T01:18:48;96476.47;;;4.15;100.00
41222;BME280;26952;42.884;23.918;2023-03-01T01:21:16;96485.16;;;4.15;100.00
41222;BME280;26952;42.884;23.918;2023-03-01T01:23:43;96482.66;;;4.25;100.00
41222;BME280;26952;42.884;23.918;2023-03-01T01:26:18;96478.03;;;4.28;100.00
41222;BME280;26952;42.884;23.918;2023-03-01T01:28:44;96485.16;;;4.26;100.00
41222;BME280;26952;42.884;23.918;2023-03-01T01:31:10;96484.00;;;4.19;100.00
41222;BME280;26952;42.884;23.918;2023-03-01T01:33:36;96484.22;;;4.16;100.00
41222;BME280;26952;42.884;23.918;2023-03-01T01:36:03;96469.44;;;4.04;100.00
41222;BME280;26952;42.884;23.918;2023-03-01T01:38:29;96490.88;;;4.09;100.00
41222;BME280;26952;42.884;23.918;2023-03-01T01:40:55;96483.03;;;4.09;100.00
41222;BME280;26952;42.884;23.918;2023-03-01T01:43:44;96490.19;;;4.30;100.00
41222;BME280;26952;42.884;23.918;2023-03-01T01:46:32;96494.94;;;4.36;100.00
41222;BME280;26952;42.884;23.918;2023-03-01T01:49:02;96484.34;;;4.37;100.00
41222;BME280;26952;42.884;23.918;2023-03-01T01:51:32;96481.72;;;4.48;100.00
41222;BME280;26952;42.884;23.918;2023-03-01T01:54:06;96479.44;;;4.55;100.00
41222;BME280;26952;42.884;23.918;2023-03-01T01:56:33;96475.16;;;4.65;100.00
41222;BME280;26952;42.884;23.918;2023-03-01T01:59:00;96490.03;;;4.64;100.00
41222;BME280;26952;42.884;23.918;2023-03-01T02:01:26;96471.22;;;4.59;100.00
41222;BME280;26952;42.884;23.918;2023-03-01T02:03:51;96477.91;;;4.63;100.00
41222;BME280;26952;42.884;23.918;2023-03-01T02:06:28;96482.28;;;4.63;100.00
41222;BME280;26952;42.884;23.918;2023-03-01T02:08:59;96486.13;;;4.59;100.00
41222;BME280;26952;42.884;23.918;2023-03-01T02:11:25;96487.94;;;4.47;100.00
41222;BME280;26952;42.884;23.918;2023-03-01T02:13:53;96482.31;;;4.52;100.00
41222;BME280;26952;42.884;23.918;2023-03-01T02:16:19;96483.50;;;4.59;100.00
41222;BME280;26952;42.884;23.918;2023-03-01T02:18:45;96483.38;;;4.60;100.00
41222;BME280;26952;42.884;23.918;2023-03-01T02:21:25;96492.41;;;4.67;100.00
41222;BME280;26952;42.884;23.918;2023-03-01T02:23:54;96491.47;;;4.68;100.00
41222;BME280;26952;42.884;23.918;2023-03-01T02:26:42;96500.53;;;4.64;100.00
41222;BME280;26952;42.884;23.918;2023-03-01T02:29:10;96483.94;;;4.64;100.00
41222;BME280;26952;42.884;23.918;2023-03-01T02:31:35;96491.22;;;4.71;100.00
41222;BME280;26952;42.884;23.918;2023-03-01T02:34:11;96479.69;;;4.63;100.00
41222;BME280;26952;42.884;23.918;2023-03-01T02:36:46;96468.25;;;4.42;100.00
41222;BME280;26952;42.884;23.918;2023-03-01T02:39:16;96478.75;;;4.42;100.00
41222;BME280;26952;42.884;23.918;2023-03-01T02:41:48;96471.50;;;4.34;100.00
41222;BME280;26952;42.884;23.918;2023-03-01T02:44:14;96464.19;;;4.26;100.00
41222;BME280;26952;42.884;23.918;2023-03-01T02:46:55;96459.69;;;4.17;100.00
41222;BME280;26952;42.884;23.918;2023-03-01T02:49:30;96458.84;;;4.17;100.00
41222;BME280;26952;42.884;23.918;2023-03-01T02:54:29;96467.44;;;4.19;100.00
41222;BME280;26952;42.884;23.918;2023-03-01T02:56:56;96471.59;;;4.21;100.00
41222;BME280;26952;42.884;23.918;2023-03-01T02:59:26;96467.19;;;4.22;100.00
41222;BME280;26952;42.884;23.918;2023-03-01T03:01:54;96443.25;;;4.04;100.00
41222;BME280;26952;42.884;23.918;2023-03-01T03:04:20;96472.78;;;4.28;100.00
41222;BME280;26952;42.884;23.918;2023-03-01T03:06:47;96477.78;;;4.32;100.00
41222;BME280;26952;42.884;23.918;2023-03-01T03:09:14;96464.94;;;4.17;100.00
41222;BME280;26952;42.884;23.918;2023-03-01T03:11:39;96472.44;;;4.22;100.00
41222;BME280;26952;42.884;23.918;2023-03-01T03:14:10;96472.06;;;4.15;100.00
41222;BME280;26952;42.884;23.918;2023-03-01T03:16:42;96460.63;;;4.05;100.00
41222;BME280;26952;42.884;23.918;2023-03-01T03:19:08;96481.81;;;4.02;100.00
41222;BME280;26952;42.884;23.918;2023-03-01T03:21:34;96460.13;;;4.00;100.00
41222;BME280;26952;42.884;23.918;2023-03-01T03:24:00;96458.59;;;3.98;100.00
41222;BME280;26952;42.884;23.918;2023-03-01T03:26:26;96468.00;;;4.00;100.00
41222;BME280;26952;42.884;23.918;2023-03-01T03:28:51;96459.69;;;3.95;100.00
41222;BME280;26952;42.884;23.918;2023-03-01T03:31:17;96467.63;;;3.94;100.00
41222;BME280;26952;42.884;23.918;2023-03-01T03:33:43;96463.00;;;3.97;100.00
41222;BME280;26952;42.884;23.918;2023-03-01T03:36:08;96471.81;;;3.96;100.00
41222;BME280;26952;42.884;23.918;2023-03-01T03:38:39;96471.34;;;4.02;100.00
41222;BME280;26952;42.884;23.918;2023-03-01T03:41:06;96482.78;;;3.90;100.00
41222;BME280;26952;42.884;23.918;2023-03-01T03:43:34;96467.50;;;3.84;100.00
41222;BME280;26952;42.884;23.918;2023-03-01T03:46:01;96489.41;;;3.83;100.00
41222;BME280;26952;42.884;23.918;2023-03-01T03:48:34;96455.09;;;3.64;100.00
41222;BME280;26952;42.884;23.918;2023-03-01T03:51:00;96480.47;;;3.75;100.00
41222;BME280;26952;42.884;23.918;2023-03-01T03:53:27;96472.22;;;3.68;100.00
41222;BME280;26952;42.884;23.918;2023-03-01T03:55:54;96484.75;;;3.76;100.00
41222;BME280;26952;42.884;23.918;2023-03-01T03:58:21;96470.09;;;3.73;100.00
41222;BME280;26952;42.884;23.918;2023-03-01T04:00:50;96486.56;;;3.86;100.00
41222;BME280;26952;42.884;23.918;2023-03-01T04:03:16;96485.88;;;3.95;100.00
41222;BME280;26952;42.884;23.918;2023-03-01T04:05:44;96489.91;;;3.99;100.00
41222;BME280;26952;42.884;23.918;2023-03-01T04:08:09;96476.94;;;3.98;100.00
41222;BME280;26952;42.884;23.918;2023-03-01T04:10:37;96494.34;;;4.10;100.00
41222;BME280;26952;42.884;23.918;2023-03-01T04:13:05;96492.06;;;4.05;100.00
41222;BME280;26952;42.884;23.918;2023-03-01T04:15:31;96495.16;;;4.10;100.00
41222;BME280;26952;42.884;23.918;2023-03-01T04:17:58;96499.94;;;4.16;100.00
41222;BME280;26952;42.884;23.918;2023-03-01T04:20:27;96490.16;;;4.07;100.00
41222;BME280;26952;42.884;23.918;2023-03-01T04:25:23;96493.84;;;4.05;100.00
41222;BME280;26952;42.884;23.918;2023-03-01T04:27:48;96494.78;;;4.15;100.00
41222;BME280;26952;42.884;23.918;2023-03-01T04:30:14;96500.88;;;4.04;100.00
41222;BME280;26952;42.884;23.918;2023-03-01T04:32:40;96493.63;;;3.97;100.00
41222;BME280;26952;42.884;23.918;2023-03-01T04:35:06;96483.72;;;4.00;100.00
41222;BME280;26952;42.884;23.918;2023-03-01T04:37:31;96487.53;;;4.07;100.00
41222;BME280;26952;42.884;23.918;2023-03-01T04:39:57;96468.47;;;3.94;100.00
41222;BME280;26952;42.884;23.918;2023-03-01T04:42:23;96483.03;;;4.09;100.00
41222;BME280;26952;42.884;23.918;2023-03-01T04:44:48;96486.94;;;4.15;100.00
41222;BME280;26952;42.884;23.918;2023-03-01T04:47:16;96479.06;;;4.04;100.00
41222;BME280;26952;42.884;23.918;2023-03-01T04:49:42;96481.00;;;4.02;100.00
41222;BME280;26952;42.884;23.918;2023-03-01T04:52:08;96486.81;;;3.94;100.00
41222;BME280;26952;42.884;23.918;2023-03-01T04:54:35;96468.94;;;3.77;100.00
41222;BME280;26952;42.884;23.918;2023-03-01T04:57:01;96477.97;;;3.84;100.00
41222;BME280;26952;42.884;23.918;2023-03-01T04:59:27;96453.94;;;3.79;100.00
41222;BME280;26952;42.884;23.918;2023-03-01T05:01:54;96478.03;;;3.95;100.00
41222;BME280;26952;42.884;23.918;2023-03-01T05:04:21;96477.28;;;3.93;100.00
41222;BME280;26952;42.884;23.918;2023-03-01T05:06:46;96484.44;;;3.91;100.00
41222;BME280;26952;42.884;23.918;2023-03-01T05:09:12;96467.88;;;3.91;100.00
41222;BME280;26952;42.884;23.918;2023-03-01T05:11:37;96468.00;;;4.00;100.00
41222;BME280;26952;42.884;23.918;2023-03-01T05:14:04;96470.28;;;4.05;100.00
41222;BME280;26952;42.884;23.918;2023-03-01T05:16:30;96464.81;;;3.97;100.00
41222;BME280;26952;42.884;23.918;2023-03-01T05:18:56;96477.53;;;3.90;100.00
41222;BME280;26952;42.884;23.918;2023-03-01T05:21:22;96469.19;;;3.74;100.00
41222;BME280;26952;42.884;23.918;2023-03-01T05:23:48;96477.59;;;3.78;100.00
41222;BME280;26952;42.884;23.918;2023-03-01T05:26:15;96480.59;;;3.84;100.00
41222;BME280;26952;42.884;23.918;2023-03-01T05:28:41;96479.06;;;3.93;100.00
41222;BME280;26952;42.884;23.918;2023-03-01T05:31:07;96469.56;;;3.92;100.00
41222;BME280;26952;42.884;23.918;2023-03-01T05:33:38;96475.16;;;3.98;100.00
41222;BME280;26952;42.884;23.918;2023-03-01T05:36:04;96485.88;;;3.95;100.00
41222;BME280;26952;42.884;23.918;2023-03-01T05:38:29;96488.38;;;3.97;100.00
41222;BME280;26952;42.884;23.918;2023-03-01T05:40:55;96480.16;;;3.90;100.00
41222;BME280;26952;42.884;23.918;2023-03-01T05:43:20;96466.69;;;3.84;100.00
41222;BME280;26952;42.884;23.918;2023-03-01T05:45:46;96483.94;;;3.86;100.00
41222;BME280;26952;42.884;23.918;2023-03-01T05:48:12;96484.66;;;3.88;100.00
41222;BME280;26952;42.884;23.918;2023-03-01T05:50:41;96477.97;;;3.84;100.00
41222;BME280;26952;42.884;23.918;2023-03-01T05:53:10;96488.81;;;3.91;100.00
41222;BME280;26952;42.884;23.918;2023-03-01T05:55:36;96485.63;;;3.87;100.00
41222;BME280;26952;42.884;23.918;2023-03-01T05:58:04;96473.81;;;3.82;100.00
41222;BME280;26952;42.884;23.918;2023-03-01T06:00:30;96482.53;;;3.82;100.00
41222;BME280;26952;42.884;23.918;2023-03-01T06:02:57;96498.25;;;3.93;100.00
41222;BME280;26952;42.884;23.918;2023-03-01T06:05:23;96486.44;;;3.88;100.00
41222;BME280;26952;42.884;23.918;2023-03-01T06:07:49;96496.13;;;3.98;100.00
41222;BME280;26952;42.884;23.918;2023-03-01T06:10:16;96480.38;;;3.87;100.00
41222;BME280;26952;42.884;23.918;2023-03-01T06:12:42;96495.88;;;3.90;100.00
41222;BME280;26952;42.884;23.918;2023-03-01T06:15:10;96498.91;;;3.84;100.00
41222;BME280;26952;42.884;23.918;2023-03-01T06:17:37;96495.38;;;3.85;100.00
41222;BME280;26952;42.884;23.918;2023-03-01T06:20:04;96481.06;;;3.78;100.00
41222;BME280;26952;42.884;23.918;2023-03-01T06:22:30;96500.16;;;4.02;100.00
41222;BME280;26952;42.884;23.918;2023-03-01T06:24:55;96492.91;;;4.06;100.00
41222;BME280;26952;42.884;23.918;2023-03-01T06:27:20;96487.66;;;4.17;100.00
41222;BME280;26952;42.884;23.918;2023-03-01T06:29:46;96499.00;;;4.28;100.00
41222;BME280;26952;42.884;23.918;2023-03-01T06:32:11;96486.97;;;4.37;100.00
41222;BME280;26952;42.884;23.918;2023-03-01T06:34:36;96497.34;;;4.28;100.00
41222;BME280;26952;42.884;23.918;2023-03-01T06:37:02;96490.75;;;4.11;100.00
41222;BME280;26952;42.884;23.918;2023-03-01T06:39:31;96495.06;;;4.23;100.00
41222;BME280;26952;42.884;23.918;2023-03-01T06:41:56;96486.13;;;4.14;100.00
41222;BME280;26952;42.884;23.918;2023-03-01T06:44:21;96485.66;;;4.32;100.00
41222;BME280;26952;42.884;23.918;2023-03-01T06:46:47;96497.56;;;4.47;100.00
41222;BME280;26952;42.884;23.918;2023-03-01T06:49:12;96489.22;;;4.42;100.00
41222;BME280;26952;42.884;23.918;2023-03-01T06:51:37;96489.69;;;4.58;100.00
41222;BME280;26952;42.884;23.918;2023-03-01T06:54:06;96480.06;;;4.47;100.00
41222;BME280;26952;42.884;23.918;2023-03-01T06:56:31;96469.91;;;4.43;100.00
41222;BME280;26952;42.884;23.918;2023-03-01T06:58:57;96484.69;;;4.55;100.00
41222;BME280;26952;42.884;23.918;2023-03-01T07:01:23;96483.25;;;4.62;100.00
41222;BME280;26952;42.884;23.918;2023-03-01T07:03:48;96488.72;;;4.70;100.00
41222;BME280;26952;42.884;23.918;2023-03-01T07:06:13;96488.50;;;4.73;100.00
41222;BME280;26952;42.884;23.918;2023-03-01T07:08:39;96480.38;;;4.76;100.00
41222;BME280;26952;42.884;23.918;2023-03-01T07:11:04;96486.13;;;4.59;100.00
41222;BME280;26952;42.884;23.918;2023-03-01T07:13:31;96482.09;;;4.44;100.00
41222;BME280;26952;42.884;23.918;2023-03-01T07:15:56;96483.25;;;4.40;100.00
41222;BME280;26952;42.884;23.918;2023-03-01T07:18:22;96493.75;;;4.40;100.00
41222;BME280;26952;42.884;23.918;2023-03-01T07:20:47;96470.66;;;4.34;100.00
41222;BME280;26952;42.884;23.918;2023-03-01T07:23:12;96473.13;;;4.35;100.00
41222;BME280;26952;42.884;23.918;2023-03-01T07:25:38;96474.94;;;4.46;100.00
41222;BME280;26952;42.884;23.918;2023-03-01T07:28:04;96494.22;;;4.56;100.00
41222;BME280;26952;42.884;23.918;2023-03-01T07:30:29;96490.41;;;4.60;100.00
41222;BME280;26952;42.884;23.918;2023-03-01T07:32:55;96475.41;;;4.62;100.00
41222;BME280;26952;42.884;23.918;2023-03-01T07:35:21;96484.56;;;4.67;100.00
41222;BME280;26952;42.884;23.918;2023-03-01T07:37:47;96449.91;;;4.53;100.00
41222;BME280;26952;42.884;23.918;2023-03-01T07:40:12;96478.59;;;4.76;100.00
41222;BME280;26952;42.884;23.918;2023-03-01T07:42:38;96482.16;;;4.75;100.00
41222;BME280;26952;42.884;23.918;2023-03-01T07:45:04;96472.75;;;4.73;100.00
41222;BME280;26952;42.884;23.918;2023-03-01T07:47:30;96473.22;;;4.78;100.00
41222;BME280;26952;42.884;23.918;2023-03-01T07:49:56;96480.00;;;4.80;100.00
41222;BME280;26952;42.884;23.918;2023-03-01T07:52:21;96476.41;;;4.92;100.00
41222;BME280;26952;42.884;23.918;2023-03-01T07:54:47;96464.69;;;4.96;100.00
41222;BME280;26952;42.884;23.918;2023-03-01T07:57:12;96469.38;;;4.93;100.00
41222;BME280;26952;42.884;23.918;2023-03-01T07:59:37;96470.03;;;5.06;100.00
41222;BME280;26952;42.884;23.918;2023-03-01T08:02:03;96474.44;;;5.16;100.00
41222;BME280;26952;42.884;23.918;2023-03-01T08:04:28;96471.72;;;5.07;100.00
41222;BME280;26952;42.884;23.918;2023-03-01T08:06:55;96466.47;;;5.07;100.00
41222;BME280;26952;42.884;23.918;2023-03-01T08:09:21;96473.72;;;5.14;100.00
41222;BME280;26952;42.884;23.918;2023-03-01T08:11:46;96456.06;;;5.16;100.00
41222;BME280;26952;42.884;23.918;2023-03-01T08:14:12;96463.56;;;5.21;100.00
41222;BME280;26952;42.884;23.918;2023-03-01T08:16:37;96470.69;;;5.30;100.00
41222;BME280;26952;42.884;23.918;2023-03-01T08:19:07;96459.88;;;5.23;100.00
41222;BME280;26952;42.884;23.918;2023-03-01T08:21:34;96476.56;;;5.22;100.00
41222;BME280;26952;42.884;23.918;2023-03-01T08:24:03;96452.38;;;5.08;100.00
41222;BME280;26952;42.884;23.918;2023-03-01T08:26:29;96451.97;;;4.92;100.00
41222;BME280;26952;42.884;23.918;2023-03-01T08:28:54;96460.81;;;4.69;100.00
41222;BME280;26952;42.884;23.918;2023-03-01T08:31:26;96467.75;;;4.70;100.00
41222;BME280;26952;42.884;23.918;2023-03-01T08:33:55;96459.19;;;4.68;100.00
41222;BME280;26952;42.884;23.918;2023-03-01T08:36:25;96476.19;;;4.84;100.00
41222;BME280;26952;42.884;23.918;2023-03-01T08:38:52;96457.38;;;4.79;100.00
41222;BME280;26952;42.884;23.918;2023-03-01T08:41:17;96460.06;;;5.00;100.00
41222;BME280;26952;42.884;23.918;2023-03-01T08:43:43;96468.84;;;5.10;100.00
41222;BME280;26952;42.884;23.918;2023-03-01T08:46:09;96475.06;;;5.09;100.00
41222;BME280;26952;42.884;23.918;2023-03-01T08:48:34;96469.53;;;5.23;100.00
41222;BME280;26952;42.884;23.918;2023-03-01T08:51:17;96467.31;;;5.39;100.00
41222;BME280;26952;42.884;23.918;2023-03-01T08:53:44;96473.59;;;5.47;100.00
41222;BME280;26952;42.884;23.918;2023-03-01T08:56:10;96483.47;;;5.55;100.00
41222;BME280;26952;42.884;23.918;2023-03-01T08:58:37;96473.16;;;5.42;100.00
41222;BME280;26952;42.884;23.918;2023-03-01T09:01:13;96467.81;;;5.33;100.00
41222;BME280;26952;42.884;23.918;2023-03-01T09:03:40;96478.91;;;5.36;100.00
41222;BME280;26952;42.884;23.918;2023-03-01T09:06:06;96475.81;;;5.31;100.00
41222;BME280;26952;42.884;23.918;2023-03-01T09:08:35;96472.56;;;5.39;100.00
41222;BME280;26952;42.884;23.918;2023-03-01T09:11:02;96477.47;;;5.64;100.00
41222;BME280;26952;42.884;23.918;2023-03-01T09:13:28;96474.06;;;5.73;100.00
41222;BME280;26952;42.884;23.918;2023-03-01T09:15:56;96475.00;;;5.83;100.00
41222;BME280;26952;42.884;23.918;2023-03-01T09:18:22;96492.78;;;6.00;100.00
41222;BME280;26952;42.884;23.918;2023-03-01T09:20:47;96476.53;;;5.86;100.00
41222;BME280;26952;42.884;23.918;2023-03-01T09:23:12;96489.16;;;5.92;100.00
41222;BME280;26952;42.884;23.918;2023-03-01T09:25:38;96469.53;;;5.75;100.00
41222;BME280;26952;42.884;23.918;2023-03-01T09:28:03;96482.09;;;5.92;100.00
41222;BME280;26952;42.884;23.918;2023-03-01T09:30:29;96478.09;;;5.77;100.00
41222;BME280;26952;42.884;23.918;2023-03-01T09:32:56;96475.53;;;5.66;100.00
41222;BME280;26952;42.884;23.918;2023-03-01T09:35:21;96475.53;;;5.66;100.00
41222;BME280;26952;42.884;23.918;2023-03-01T09:37:47;96470.47;;;5.53;100.00
41222;BME280;26952;42.884;23.918;2023-03-01T09:40:18;96466.38;;;5.60;100.00
41222;BME280;26952;42.884;23.918;2023-03-01T09:43:02;96476.25;;;5.68;100.00
41222;BME280;26952;42.884;23.918;2023-03-01T09:45:36;96464.75;;;5.69;100.00
41222;BME280;26952;42.884;23.918;2023-03-01T09:48:03;96462.09;;;5.80;100.00
41222;BME280;26952;42.884;23.918;2023-03-01T09:50:35;96463.56;;;5.94;100.00
41222;BME280;26952;42.884;23.918;2023-03-01T09:53:04;96473.19;;;6.04;100.00
41222;BME280;26952;42.884;23.918;2023-03-01T09:55:34;96475.44;;;5.88;100.00
41222;BME280;26952;42.884;23.918;2023-03-01T10:00:59;96464.16;;;5.45;100.00
41222;BME280;26952;42.884;23.918;2023-03-01T10:03:50;96462.22;;;5.26;100.00
41222;BME280;26952;42.884;23.918;2023-03-01T10:06:22;96460.16;;;5.41;100.00
41222;BME280;26952;42.884;23.918;2023-03-01T10:11:42;96437.47;;;5.40;100.00
41222;BME280;26952;42.884;23.918;2023-03-01T10:14:38;96450.94;;;5.67;100.00
41222;BME280;26952;42.884;23.918;2023-03-01T10:17:15;96447.53;;;5.76;100.00
41222;BME280;26952;42.884;23.918;2023-03-01T10:19:43;96443.88;;;5.67;100.00
41222;BME280;26952;42.884;23.918;2023-03-01T10:22:15;96443.44;;;5.62;100.00
41222;BME280;26952;42.884;23.918;2023-03-01T10:24:41;96443.38;;;5.53;100.00
41222;BME280;26952;42.884;23.918;2023-03-01T10:27:15;96434.44;;;5.24;100.00
41222;BME280;26952;42.884;23.918;2023-03-01T10:29:59;96436.66;;;5.08;100.00
41222;BME280;26952;42.884;23.918;2023-03-01T10:32:25;96427.41;;;4.93;100.00
41222;BME280;26952;42.884;23.918;2023-03-01T10:34:51;96446.34;;;5.07;100.00
41222;BME280;26952;42.884;23.918;2023-03-01T10:37:19;96441.97;;;5.17;100.00
41222;BME280;26952;42.884;23.918;2023-03-01T10:42:31;96418.88;;;5.32;100.00
41222;BME280;26952;42.884;23.918;2023-03-01T10:45:16;96431.78;;;5.55;100.00
41222;BME280;26952;42.884;23.918;2023-03-01T10:47:42;96427.44;;;5.65;100.00
41222;BME280;26952;42.884;23.918;2023-03-01T10:50:21;96421.00;;;5.79;100.00
41222;BME280;26952;42.884;23.918;2023-03-01T10:53:00;96425.28;;;5.91;100.00
41222;BME280;26952;42.884;23.918;2023-03-01T10:55:39;96414.38;;;5.96;100.00
41222;BME280;26952;42.884;23.918;2023-03-01T10:58:19;96391.97;;;5.81;100.00
41222;BME280;26952;42.884;23.918;2023-03-01T11:01:09;96424.56;;;5.89;100.00
41222;BME280;26952;42.884;23.918;2023-03-01T11:04:10;96406.81;;;5.82;100.00
41222;BME280;26952;42.884;23.918;2023-03-01T11:06:59;96420.47;;;5.96;100.00
41222;BME280;26952;42.884;23.918;2023-03-01T11:09:24;96408.56;;;6.02;100.00
41222;BME280;26952;42.884;23.918;2023-03-01T11:11:54;96404.59;;;6.07;100.00
41222;BME280;26952;42.884;23.918;2023-03-01T11:14:22;96400.50;;;6.14;100.00
41222;BME280;26952;42.884;23.918;2023-03-01T11:16:58;96407.56;;;6.23;100.00
41222;BME280;26952;42.884;23.918;2023-03-01T11:19:24;96405.03;;;6.12;100.00
41222;BME280;26952;42.884;23.918;2023-03-01T11:22:06;96397.09;;;5.93;100.00
41222;BME280;26952;42.884;23.918;2023-03-01T11:24:44;96378.25;;;5.26;100.00
41222;BME280;26952;42.884;23.918;2023-03-01T11:27:17;96363.78;;;5.11;100.00
41222;BME280;26952;42.884;23.918;2023-03-01T11:29:47;96375.69;;;5.15;100.00
41222;BME280;26952;42.884;23.918;2023-03-01T11:32:16;96371.16;;;4.86;100.00
41222;BME280;26952;42.884;23.918;2023-03-01T11:34:50;96345.25;;;4.72;100.00
41222;BME280;26952;42.884;23.918;2023-03-01T11:37:26;96368.16;;;4.90;100.00
41222;BME280;26952;42.884;23.918;2023-03-01T11:51:05;96357.47;;;5.14;100.00
41222;BME280;26952;42.884;23.918;2023-03-01T11:53:54;96358.16;;;5.16;100.00
41222;BME280;26952;42.884;23.918;2023-03-01T11:56:34;96367.53;;;4.98;100.00
41222;BME280;26952;42.884;23.918;2023-03-01T11:59:13;96367.31;;;5.01;100.00
41222;BME280;26952;42.884;23.918;2023-03-01T12:07:10;96375.25;;;4.99;100.00
41222;BME280;26952;42.884;23.918;2023-03-01T12:09:52;96368.94;;;5.02;100.00
41222;BME280;26952;42.884;23.918;2023-03-01T12:12:30;96366.13;;;4.94;100.00
41222;BME280;26952;42.884;23.918;2023-03-01T12:15:18;96363.72;;;5.02;100.00
41222;BME280;26952;42.884;23.918;2023-03-01T12:30:09;96361.94;;;4.91;100.00
41222;BME280;26952;42.884;23.918;2023-03-01T12:41:05;96353.66;;;4.44;100.00
41222;BME280;26952;42.884;23.918;2023-03-01T12:44:01;96356.63;;;4.50;100.00
41222;BME280;26952;42.884;23.918;2023-03-01T12:51:39;96344.72;;;4.46;100.00
41222;BME280;26952;42.884;23.918;2023-03-01T12:54:14;96338.75;;;4.55;100.00
41222;BME280;26952;42.884;23.918;2023-03-01T12:56:41;96331.06;;;4.32;100.00
41222;BME280;26952;42.884;23.918;2023-03-01T13:09:55;96342.38;;;4.64;100.00
41222;BME280;26952;42.884;23.918;2023-03-01T13:12:45;96340.28;;;4.58;100.00
41222;BME280;26952;42.884;23.918;2023-03-01T13:20:48;96318.03;;;4.52;100.00
41222;BME280;26952;42.884;23.918;2023-03-01T13:34:02;96321.97;;;4.47;100.00
41222;BME280;26952;42.884;23.918;2023-03-01T13:47:34;96326.75;;;4.42;100.00
41222;BME280;26952;42.884;23.918;2023-03-01T13:49:57;96331.13;;;4.52;100.00
41222;BME280;26952;42.884;23.918;2023-03-01T13:55:58;96325.56;;;4.35;100.00
41222;BME280;26952;42.884;23.918;2023-03-01T14:00:46;96319.84;;;4.41;100.00
41222;BME280;26952;42.884;23.918;2023-03-01T14:03:17;96327.28;;;4.56;100.00
41222;BME280;26952;42.884;23.918;2023-03-01T14:05:58;96317.44;;;4.49;100.00
41222;BME280;26952;42.884;23.918;2023-03-01T14:08:26;96316.25;;;4.42;100.00
41222;BME280;26952;42.884;23.918;2023-03-01T14:14:20;96335.22;;;4.34;100.00
41222;BME280;26952;42.884;23.918;2023-03-01T14:19:27;96308.69;;;4.28;100.00
41222;BME280;26952;42.884;23.918;2023-03-01T14:22:04;96292.47;;;4.34;100.00
41222;BME280;26952;42.884;23.918;2023-03-01T14:24:35;96304.72;;;4.33;100.00
41222;BME280;26952;42.884;23.918;2023-03-01T14:27:02;96315.53;;;4.40;100.00
41222;BME280;26952;42.884;23.918;2023-03-01T14:29:37;96323.03;;;4.55;100.00
41222;BME280;26952;42.884;23.918;2023-03-01T14:32:29;96323.09;;;4.65;100.00
41222;BME280;26952;42.884;23.918;2023-03-01T14:34:56;96309.03;;;4.66;100.00
41222;BME280;26952;42.884;23.918;2023-03-01T14:37:33;96295.44;;;4.72;100.00
41222;BME280;26952;42.884;23.918;2023-03-01T14:40:00;96302.28;;;4.84;100.00
41222;BME280;26952;42.884;23.918;2023-03-01T14:42:34;96299.97;;;4.70;100.00
41222;BME280;26952;42.884;23.918;2023-03-01T14:45:01;96305.06;;;4.51;100.00
41222;BME280;26952;42.884;23.918;2023-03-01T14:47:30;96291.50;;;4.46;100.00